createdAt,value
2022-09-04T00:00:24.734Z,9
2022-09-04T00:05:06.043Z,9
2022-09-04T00:09:47.343Z,9
2022-09-04T00:14:28.654Z,9
2022-09-04T00:19:10.963Z,9
2022-09-04T00:23:53.272Z,9
2022-09-04T00:28:35.485Z,9
2022-09-04T00:33:17.788Z,9
2022-09-04T00:38:00.126Z,9
2022-09-04T00:42:42.311Z,9
2022-09-04T00:47:24.616Z,9
2022-09-04T00:52:06.925Z,9
2022-09-04T00:56:49.234Z,9
2022-09-04T01:01:31.495Z,9
2022-09-04T01:06:13.770Z,9
2022-09-04T01:10:56.069Z,9
2022-09-04T01:15:37.390Z,9
2022-09-04T01:20:19.578Z,9
2022-09-04T01:25:01.885Z,9
2022-09-04T01:29:44.256Z,9
2022-09-04T01:34:26.405Z,9
2022-09-04T01:39:08.711Z,9
2022-09-04T01:43:51.018Z,9
2022-09-04T01:48:32.347Z,9
2022-09-04T01:53:13.660Z,9
2022-09-04T01:57:55.863Z,9
2022-09-04T02:02:37.149Z,9
2022-09-04T02:07:18.461Z,9
2022-09-04T02:12:00.768Z,9
2022-09-04T02:16:43.076Z,9
2022-09-04T02:21:25.288Z,9
2022-09-04T02:26:07.594Z,9
2022-09-04T02:30:49.920Z,9
2022-09-04T02:35:32.238Z,9
2022-09-04T02:40:14.425Z,9
2022-09-04T02:44:56.728Z,9
2022-09-04T02:49:39.042Z,9
2022-09-04T02:54:21.245Z,9
2022-09-04T02:59:03.557Z,9
2022-09-04T03:03:45.863Z,9
2022-09-04T03:08:27.175Z,9
2022-09-04T03:13:09.424Z,9
2022-09-04T03:17:51.692Z,9
2022-09-04T03:22:33.999Z,9
2022-09-04T03:27:16.318Z,9
2022-09-04T03:31:58.522Z,9
2022-09-04T03:36:40.831Z,9
2022-09-04T03:41:22.156Z,9
2022-09-04T03:46:03.444Z,9
2022-09-04T03:50:45.751Z,9
2022-09-04T03:55:27.058Z,9
2022-09-04T04:00:08.284Z,9
2022-09-04T04:04:50.588Z,12
2022-09-04T04:09:32.881Z,18
2022-09-04T04:14:15.188Z,30
2022-09-04T04:18:57.410Z,58
2022-09-04T04:23:39.703Z,92
2022-09-04T04:28:22.021Z,186
2022-09-04T04:33:04.230Z,307
2022-09-04T04:37:46.596Z,484
2022-09-04T04:42:28.867Z,678
2022-09-04T04:47:11.154Z,992
2022-09-04T04:51:53.364Z,1375
2022-09-04T04:56:35.671Z,1767
2022-09-04T05:01:16.979Z,2254
2022-09-04T05:05:59.296Z,2610
2022-09-04T05:10:41.497Z,2687
2022-09-04T05:15:23.844Z,2575
2022-09-04T05:20:06.076Z,2728
2022-09-04T05:24:48.357Z,3165
2022-09-04T05:29:30.671Z,3905
2022-09-04T05:34:11.975Z,4972
2022-09-04T05:38:53.376Z,6060
2022-09-04T05:43:35.491Z,6611
2022-09-04T05:48:17.801Z,7633
2022-09-04T05:52:59.110Z,7677
2022-09-04T05:57:40.417Z,6664
2022-09-04T06:02:22.721Z,6259
2022-09-04T06:07:04.962Z,6286
2022-09-04T06:11:47.275Z,5609
2022-09-04T06:16:29.547Z,4774
2022-09-04T06:21:11.756Z,4729
2022-09-04T06:25:54.070Z,4430
2022-09-04T06:30:36.377Z,4355
2022-09-04T06:35:18.584Z,4969
2022-09-04T06:40:00.904Z,5115
2022-09-04T06:44:43.231Z,5533
2022-09-04T06:49:25.515Z,7846
2022-09-04T06:54:07.729Z,8949
2022-09-04T06:58:49.029Z,7457
2022-09-04T07:03:31.337Z,6393
2022-09-04T07:08:13.652Z,6003
2022-09-04T07:12:55.858Z,6050
2022-09-04T07:17:38.166Z,6380
2022-09-04T07:22:20.502Z,6233
2022-09-04T07:27:02.686Z,7006
2022-09-04T07:31:43.993Z,7660
2022-09-04T07:36:25.303Z,9328
2022-09-04T07:41:06.614Z,8443
2022-09-04T07:45:47.914Z,21643
2022-09-04T07:50:30.224Z,38520
2022-09-04T07:55:12.532Z,19123
2022-09-04T07:59:54.742Z,13115
2022-09-04T08:04:37.051Z,12061
2022-09-04T08:09:19.383Z,15015
2022-09-04T08:14:01.611Z,19840
2022-09-04T08:18:43.878Z,23997
2022-09-04T08:23:26.224Z,24795
2022-09-04T08:28:08.407Z,24405
2022-09-04T08:32:50.715Z,24883
2022-09-04T08:37:33.036Z,28068
2022-09-04T08:42:15.227Z,28513
2022-09-04T08:46:56.534Z,16489
2022-09-04T08:51:38.857Z,22834
2022-09-04T08:56:21.155Z,25937
2022-09-04T09:01:03.369Z,28966
2022-09-04T09:05:45.673Z,27689
2022-09-04T09:10:27.978Z,31536
2022-09-04T09:15:10.189Z,33218
2022-09-04T09:19:51.496Z,27219
2022-09-04T09:24:32.807Z,30575
2022-09-04T09:29:15.114Z,21968
2022-09-04T09:33:57.421Z,17477
2022-09-04T09:38:39.633Z,17854
2022-09-04T09:43:21.944Z,20366
2022-09-04T09:48:04.263Z,19921
2022-09-04T09:52:46.525Z,23126
2022-09-04T09:57:28.771Z,12866
2022-09-04T10:02:11.085Z,21629
2022-09-04T10:06:53.388Z,24261
2022-09-04T10:11:35.599Z,24934
2022-09-04T10:16:17.912Z,20316
2022-09-04T10:21:00.239Z,25636
2022-09-04T10:25:41.525Z,25405
2022-09-04T10:30:23.737Z,27093
2022-09-04T10:35:06.070Z,32197
2022-09-04T10:39:48.350Z,28825
2022-09-04T10:44:30.579Z,25662
2022-09-04T10:49:12.874Z,23845
2022-09-04T10:53:55.195Z,23537
2022-09-04T10:58:36.493Z,20984
2022-09-04T11:03:17.837Z,18306
2022-09-04T11:08:00.017Z,18584
2022-09-04T11:12:42.328Z,19564
2022-09-04T11:17:24.640Z,19815
2022-09-04T11:22:06.966Z,15089
2022-09-04T11:26:49.156Z,13815
2022-09-04T11:31:31.469Z,13298
2022-09-04T11:36:13.769Z,17922
2022-09-04T11:40:55.981Z,32495
2022-09-04T11:45:38.287Z,35026
2022-09-04T11:50:20.606Z,29463
2022-09-04T11:55:02.803Z,13292
2022-09-04T11:59:45.115Z,27016
2022-09-04T12:04:26.497Z,28753
2022-09-04T12:09:08.753Z,9473
2022-09-04T12:13:51.039Z,54546
2022-09-04T12:18:33.248Z,40024
2022-09-04T12:23:15.628Z,6355
2022-09-04T12:27:57.890Z,28167
2022-09-04T12:32:40.081Z,23309
2022-09-04T12:37:22.432Z,20734
2022-09-04T12:42:03.712Z,23434
2022-09-04T12:46:45.022Z,26857
2022-09-04T12:51:26.334Z,36853
2022-09-04T12:56:07.625Z,15585
2022-09-04T13:00:48.932Z,19654
2022-09-04T13:05:30.259Z,33424
2022-09-04T13:10:12.565Z,20371
2022-09-04T13:14:54.818Z,44196
2022-09-04T13:19:37.113Z,28603
2022-09-04T13:24:19.381Z,21035
2022-09-04T13:29:01.587Z,24237
2022-09-04T13:33:43.918Z,24828
2022-09-04T13:38:26.209Z,26466
2022-09-04T13:43:08.523Z,30506
2022-09-04T13:47:50.737Z,29600
2022-09-04T13:52:33.055Z,26415
2022-09-04T13:57:15.355Z,24344
2022-09-04T14:01:57.654Z,19174
2022-09-04T14:06:39.865Z,19260
2022-09-04T14:11:21.171Z,15580
2022-09-04T14:16:03.485Z,16955
2022-09-04T14:20:45.904Z,18215
2022-09-04T14:25:28.005Z,17528
2022-09-04T14:30:10.311Z,19730
2022-09-04T14:34:52.617Z,21345
2022-09-04T14:39:33.938Z,18838
2022-09-04T14:44:15.241Z,19077
2022-09-04T14:48:56.545Z,17778
2022-09-04T14:53:37.853Z,17146
2022-09-04T14:58:20.208Z,59970
2022-09-04T15:03:02.375Z,30542
2022-09-04T15:07:44.688Z,26326
2022-09-04T15:12:26.992Z,22847
2022-09-04T15:17:09.305Z,18836
2022-09-04T15:21:51.509Z,23924
2022-09-04T15:26:33.822Z,22366
2022-09-04T15:31:16.129Z,18193
2022-09-04T15:35:58.340Z,16359
2022-09-04T15:40:40.648Z,14474
2022-09-04T15:45:22.961Z,13714
2022-09-04T15:50:05.271Z,12693
2022-09-04T15:54:46.479Z,13495
2022-09-04T15:59:28.788Z,8910
2022-09-04T16:04:11.110Z,9016
2022-09-04T16:08:53.419Z,8772
2022-09-04T16:13:35.634Z,7503
2022-09-04T16:18:17.927Z,5867
2022-09-04T16:23:00.240Z,4505
2022-09-04T16:27:41.543Z,3911
2022-09-04T16:32:22.853Z,4032
2022-09-04T16:37:04.180Z,3825
2022-09-04T16:41:45.367Z,3444
2022-09-04T16:46:27.676Z,3273
2022-09-04T16:51:09.984Z,2875
2022-09-04T16:55:52.297Z,2622
2022-09-04T17:00:34.510Z,3019
2022-09-04T17:05:16.812Z,2981
2022-09-04T17:09:59.139Z,2747
2022-09-04T17:14:41.341Z,2194
2022-09-04T17:19:23.642Z,2352
2022-09-04T17:24:05.952Z,1605
2022-09-04T17:28:48.168Z,1359
2022-09-04T17:33:30.470Z,1146
2022-09-04T17:38:12.781Z,900
2022-09-04T17:42:54.092Z,698
2022-09-04T17:47:36.312Z,495
2022-09-04T17:52:18.607Z,316
2022-09-04T17:57:00.930Z,184
2022-09-04T18:01:43.124Z,114
2022-09-04T18:06:25.466Z,63
2022-09-04T18:11:07.739Z,36
2022-09-04T18:15:49.052Z,30
2022-09-04T18:20:30.363Z,15
2022-09-04T18:25:11.664Z,9
2022-09-04T18:29:52.974Z,9
2022-09-04T18:34:35.183Z,9
2022-09-04T18:39:17.535Z,9
2022-09-04T18:43:59.804Z,9
2022-09-04T18:48:42.010Z,9
2022-09-04T18:53:24.317Z,9
2022-09-04T18:58:06.629Z,9
2022-09-04T19:07:31.146Z,9
2022-09-04T19:12:13.542Z,9
2022-09-04T19:16:55.764Z,9
2022-09-04T19:21:37.972Z,9
2022-09-04T19:26:20.308Z,9
2022-09-04T19:31:01.598Z,9
2022-09-04T19:35:43.901Z,9
2022-09-04T19:40:26.113Z,9
2022-09-04T19:45:08.431Z,9
2022-09-04T19:49:50.727Z,9
2022-09-04T19:54:32.948Z,9
2022-09-04T19:59:15.245Z,9
2022-09-04T20:03:57.562Z,9
2022-09-04T20:08:38.865Z,9
2022-09-04T20:13:20.180Z,9
2022-09-04T20:18:02.379Z,9
2022-09-04T20:22:44.688Z,9
2022-09-04T20:27:26.998Z,9
2022-09-04T20:32:09.205Z,9
2022-09-04T20:36:51.512Z,9
2022-09-04T20:41:33.823Z,9
2022-09-04T20:46:16.033Z,9
2022-09-04T20:50:58.340Z,9
2022-09-04T20:55:40.649Z,9
2022-09-04T21:00:22.962Z,9
2022-09-04T21:05:05.170Z,9
2022-09-04T21:09:47.491Z,9
2022-09-04T21:14:28.780Z,9
2022-09-04T21:19:11.092Z,9
2022-09-04T21:23:53.295Z,9
2022-09-04T21:28:35.645Z,9
2022-09-04T21:33:17.915Z,9
2022-09-04T21:38:00.131Z,9
2022-09-04T21:42:42.469Z,9
2022-09-04T21:47:23.735Z,9
2022-09-04T21:52:05.058Z,9
2022-09-04T21:56:46.353Z,9
2022-09-04T22:01:27.661Z,9
2022-09-04T22:06:09.971Z,9
2022-09-04T22:10:52.185Z,9
2022-09-04T22:15:34.482Z,9
2022-09-04T22:20:16.792Z,9
2022-09-04T22:24:59.006Z,9
2022-09-04T22:29:41.316Z,9
2022-09-04T22:34:23.612Z,9
2022-09-04T22:39:05.928Z,9
2022-09-04T22:43:48.162Z,9
2022-09-04T22:48:30.443Z,9
2022-09-04T22:53:12.809Z,9
2022-09-04T22:57:54.965Z,9
2022-09-04T23:02:36.267Z,9
2022-09-04T23:07:18.571Z,9
2022-09-04T23:12:00.881Z,9
2022-09-04T23:16:43.098Z,9
2022-09-04T23:21:25.418Z,9
2022-09-04T23:26:07.711Z,9
2022-09-04T23:30:50.030Z,9
2022-09-04T23:35:31.323Z,9
2022-09-04T23:40:12.553Z,9
2022-09-04T23:44:53.838Z,9
2022-09-04T23:49:35.147Z,9
2022-09-04T23:54:16.450Z,9
2022-09-04T23:58:57.756Z,9
